createdAt,value
2022-10-22T00:01:15.628Z,82.29
2022-10-22T00:03:42.317Z,82.59
2022-10-22T00:06:09.038Z,82.68
2022-10-22T00:08:35.965Z,82.69
2022-10-22T00:11:12.266Z,83.04
2022-10-22T00:13:39.025Z,83.15
2022-10-22T00:16:05.900Z,83.12
2022-10-22T00:18:32.482Z,83.41
2022-10-22T00:20:59.205Z,83.23
2022-10-22T00:23:25.808Z,83.07
2022-10-22T00:25:53.726Z,83.46
2022-10-22T00:28:20.769Z,83.31
2022-10-22T00:30:47.527Z,83.51
2022-10-22T00:33:14.138Z,83.65
2022-10-22T00:35:40.805Z,83.98
2022-10-22T00:38:07.378Z,84.03
2022-10-22T00:40:33.944Z,83.96
2022-10-22T00:43:00.478Z,84.01
2022-10-22T00:45:28.773Z,84.05
2022-10-22T00:48:09.437Z,83.76
2022-10-22T00:50:55.473Z,83.70
2022-10-22T00:53:37.078Z,83.72
2022-10-22T00:56:06.637Z,83.44
2022-10-22T00:58:36.970Z,83.47
2022-10-22T01:01:06.079Z,83.51
2022-10-22T01:03:32.917Z,83.53
2022-10-22T01:06:03.306Z,83.18
2022-10-22T01:08:32.864Z,83.44
2022-10-22T01:11:17.725Z,83.52
2022-10-22T01:13:57.920Z,83.31
2022-10-22T01:16:39.029Z,83.36
2022-10-22T01:19:36.928Z,83.71
2022-10-22T01:22:29.316Z,83.55
2022-10-22T01:25:25.472Z,83.09
2022-10-22T01:28:08.274Z,82.95
2022-10-22T01:30:37.350Z,83.29
2022-10-22T01:33:08.880Z,83.06
2022-10-22T01:35:39.866Z,83.13
2022-10-22T01:38:12.750Z,82.80
2022-10-22T01:40:39.915Z,82.58
2022-10-22T01:43:08.601Z,82.67
2022-10-22T01:45:44.820Z,82.68
2022-10-22T01:48:29.321Z,82.85
2022-10-22T01:51:17.624Z,82.74
2022-10-22T01:54:08.687Z,83.16
2022-10-22T01:56:49.491Z,83.10
2022-10-22T01:59:18.985Z,83.21
2022-10-22T02:02:13.089Z,83.69
2022-10-22T02:04:55.026Z,83.64
2022-10-22T02:07:28.388Z,83.58
2022-10-22T02:09:56.196Z,84.04
2022-10-22T02:12:24.442Z,84.33
2022-10-22T02:14:52.534Z,84.53
2022-10-22T02:17:22.209Z,83.95
2022-10-22T02:19:56.208Z,84.11
2022-10-22T02:22:24.705Z,83.81
2022-10-22T02:24:51.430Z,84.18
2022-10-22T02:27:30.418Z,83.52
2022-10-22T02:30:14.096Z,83.62
2022-10-22T02:32:49.748Z,83.50
2022-10-22T02:35:21.137Z,83.09
2022-10-22T02:37:49.398Z,83.49
2022-10-22T02:40:16.563Z,83.50
2022-10-22T02:42:43.769Z,83.46
2022-10-22T02:45:10.652Z,83.31
2022-10-22T02:47:37.285Z,83.29
2022-10-22T02:50:06.699Z,83.13
2022-10-22T02:52:36.158Z,83.11
2022-10-22T02:55:03.818Z,83.34
2022-10-22T02:57:30.474Z,83.18
2022-10-22T02:59:57.041Z,83.22
2022-10-22T03:02:23.806Z,83.10
2022-10-22T03:04:50.346Z,82.71
2022-10-22T03:07:17.028Z,82.76
2022-10-22T03:09:43.562Z,82.77
2022-10-22T03:12:10.212Z,82.11
2022-10-22T03:14:36.870Z,82.44
2022-10-22T03:17:03.595Z,82.71
2022-10-22T03:19:30.214Z,82.52
2022-10-22T03:22:02.455Z,82.20
2022-10-22T03:24:41.579Z,81.84
2022-10-22T03:27:08.578Z,82.00
2022-10-22T03:29:38.389Z,82.50
2022-10-22T03:32:05.156Z,82.32
2022-10-22T03:34:31.707Z,82.58
2022-10-22T03:37:00.775Z,82.37
2022-10-22T03:39:30.166Z,82.52
2022-10-22T03:41:57.312Z,83.00
2022-10-22T03:44:24.669Z,82.81
2022-10-22T03:46:51.687Z,83.16
2022-10-22T03:49:18.340Z,82.73
2022-10-22T03:51:44.927Z,83.09
2022-10-22T03:54:11.507Z,83.23
2022-10-22T03:56:38.127Z,82.83
2022-10-22T03:59:04.904Z,83.12
2022-10-22T04:01:31.725Z,83.16
2022-10-22T04:03:58.673Z,83.03
2022-10-22T04:06:25.450Z,83.39
2022-10-22T04:08:52.070Z,83.21
2022-10-22T04:11:18.933Z,83.03
2022-10-22T04:13:45.512Z,83.40
2022-10-22T04:16:15.781Z,83.06
2022-10-22T04:18:43.524Z,83.62
2022-10-22T04:21:11.656Z,83.62
2022-10-22T04:23:38.971Z,83.51
2022-10-22T04:26:07.956Z,83.50
2022-10-22T04:28:35.292Z,83.50
2022-10-22T04:31:08.561Z,83.88
2022-10-22T04:33:35.146Z,83.83
2022-10-22T04:36:09.665Z,83.95
2022-10-22T04:38:36.301Z,83.79
2022-10-22T04:41:14.569Z,83.73
2022-10-22T04:43:42.074Z,83.85
2022-10-22T04:46:09.436Z,84.17
2022-10-22T04:48:37.471Z,84.28
2022-10-22T04:51:04.553Z,84.38
2022-10-22T04:53:31.152Z,84.49
2022-10-22T04:56:11.317Z,84.54
2022-10-22T04:58:38.903Z,84.89
2022-10-22T05:01:13.938Z,84.79
2022-10-22T05:03:41.578Z,84.21
2022-10-22T05:06:08.892Z,84.71
2022-10-22T05:08:35.977Z,84.12
2022-10-22T05:11:20.333Z,84.05
2022-10-22T05:13:47.815Z,84.37
2022-10-22T05:16:14.957Z,84.34
2022-10-22T05:18:43.769Z,84.80
2022-10-22T05:21:12.994Z,85.01
2022-10-22T05:23:39.709Z,84.94
2022-10-22T05:26:08.524Z,84.57
2022-10-22T05:28:36.034Z,84.63
2022-10-22T05:31:03.974Z,84.67
2022-10-22T05:33:31.833Z,84.78
2022-10-22T05:35:58.841Z,84.61
2022-10-22T05:38:25.628Z,84.32
2022-10-22T05:41:18.936Z,84.29
2022-10-22T05:43:46.170Z,84.13
2022-10-22T05:46:19.889Z,83.72
2022-10-22T05:48:50.918Z,84.01
2022-10-22T05:51:18.432Z,84.09
2022-10-22T05:53:45.128Z,84.26
2022-10-22T05:56:16.299Z,83.94
2022-10-22T05:58:44.540Z,83.97
2022-10-22T06:01:25.993Z,84.27
2022-10-22T06:03:57.718Z,84.33
2022-10-22T06:06:27.309Z,84.95
2022-10-22T06:08:54.940Z,85.44
2022-10-22T06:11:23.461Z,86.25
2022-10-22T06:13:51.586Z,87.14
2022-10-22T06:16:18.164Z,86.74
2022-10-22T06:18:44.822Z,87.20
2022-10-22T06:21:14.072Z,87.11
2022-10-22T06:23:41.756Z,86.71
2022-10-22T06:26:09.410Z,87.32
2022-10-22T06:28:36.799Z,87.18
2022-10-22T06:31:04.456Z,87.18
2022-10-22T06:33:33.246Z,87.42
2022-10-22T06:36:12.124Z,87.68
2022-10-22T06:38:39.586Z,87.89
2022-10-22T06:41:09.352Z,87.93
2022-10-22T06:43:35.955Z,87.89
2022-10-22T06:46:05.686Z,87.54
2022-10-22T06:48:32.277Z,86.64
2022-10-22T06:51:10.332Z,86.46
2022-10-22T06:53:38.229Z,86.47
2022-10-22T06:56:09.066Z,86.73
2022-10-22T06:58:35.973Z,86.50
2022-10-22T07:01:08.256Z,86.34
2022-10-22T07:03:34.962Z,86.64
2022-10-22T07:06:03.588Z,86.68
2022-10-22T07:08:30.758Z,86.49
2022-10-22T07:11:08.700Z,86.32
2022-10-22T07:13:37.881Z,86.27
2022-10-22T07:16:05.791Z,85.66
2022-10-22T07:18:33.392Z,85.78
2022-10-22T07:21:00.357Z,86.04
2022-10-22T07:23:28.117Z,85.92
2022-10-22T07:28:21.559Z,86.62
2022-10-22T07:30:49.278Z,86.80
2022-10-22T07:33:15.891Z,87.19
2022-10-22T07:35:42.781Z,87.00
2022-10-22T07:38:09.442Z,87.14
2022-10-22T07:40:36.512Z,88.33
2022-10-22T07:43:03.801Z,88.37
2022-10-22T07:45:30.908Z,88.39
2022-10-22T07:47:57.553Z,88.28
2022-10-22T07:50:24.157Z,88.75
2022-10-22T07:52:51.546Z,88.78
2022-10-22T07:55:19.504Z,88.62
2022-10-22T07:57:46.191Z,88.67
2022-10-22T08:00:13.415Z,89.44
2022-10-22T08:02:40.293Z,90.05
2022-10-22T08:05:07.721Z,90.19
2022-10-22T08:07:34.373Z,90.62
2022-10-22T08:10:01.112Z,90.97
2022-10-22T08:12:27.648Z,91.97
2022-10-22T08:14:54.347Z,92.17
2022-10-22T08:17:20.925Z,93.04
2022-10-22T08:19:47.538Z,92.87
2022-10-22T08:22:16.547Z,93.98
2022-10-22T08:24:45.235Z,94.05
2022-10-22T08:27:11.876Z,94.21
2022-10-22T08:29:39.012Z,93.95
2022-10-22T08:32:05.682Z,93.63
2022-10-22T08:34:33.171Z,93.10
2022-10-22T08:36:59.888Z,93.32
2022-10-22T08:39:26.565Z,93.21
2022-10-22T08:42:06.505Z,93.89
2022-10-22T08:45:01.941Z,93.84
2022-10-22T08:48:09.502Z,95.33
2022-10-22T08:50:41.626Z,95.09
2022-10-22T08:53:15.387Z,96.35
2022-10-22T08:55:42.290Z,96.46
2022-10-22T08:58:40.617Z,95.87
2022-10-22T09:01:35.293Z,95.79
2022-10-22T09:04:09.238Z,95.65
2022-10-22T09:06:38.333Z,94.26
2022-10-22T09:09:12.924Z,94.38
2022-10-22T09:11:43.380Z,94.30
2022-10-22T09:14:18.009Z,94.17
2022-10-22T09:17:03.155Z,93.45
2022-10-22T09:20:00.558Z,93.13
2022-10-22T09:22:46.776Z,93.44
2022-10-22T09:25:26.028Z,93.10
2022-10-22T09:27:58.202Z,94.05
2022-10-22T09:30:29.420Z,94.71
2022-10-22T09:33:08.021Z,94.47
2022-10-22T09:35:44.710Z,94.79
2022-10-22T09:38:14.163Z,95.03
2022-10-22T09:40:46.717Z,93.84
2022-10-22T09:43:14.857Z,93.86
2022-10-22T09:45:43.009Z,92.99
2022-10-22T09:48:11.941Z,92.16
2022-10-22T09:50:43.667Z,92.36
2022-10-22T09:53:21.597Z,92.52
2022-10-22T09:55:58.089Z,91.98
2022-10-22T09:58:25.484Z,91.95
2022-10-22T10:00:58.623Z,91.48
2022-10-22T10:03:28.353Z,92.39
2022-10-22T10:06:01.500Z,93.97
2022-10-22T10:08:31.704Z,94.70
2022-10-22T10:11:10.523Z,96.02
2022-10-22T10:13:46.816Z,95.28
2022-10-22T10:17:07.865Z,95.53
2022-10-22T10:20:04.220Z,95.74
2022-10-22T10:22:39.283Z,96.87
2022-10-22T10:25:11.970Z,96.64
2022-10-22T10:27:43.051Z,96.55
2022-10-22T10:30:18.048Z,97.42
2022-10-22T10:33:09.234Z,97.90
2022-10-22T10:36:02.183Z,96.69
2022-10-22T10:38:36.037Z,97.03
2022-10-22T10:41:23.149Z,96.55
2022-10-22T10:44:00.612Z,96.46
2022-10-22T10:46:50.424Z,96.98
2022-10-22T10:49:20.263Z,96.84
2022-10-22T10:52:05.049Z,97.08
2022-10-22T10:54:50.320Z,97.22
2022-10-22T10:58:03.178Z,96.33
2022-10-22T11:00:36.588Z,96.84
2022-10-22T11:03:31.150Z,96.31
2022-10-22T11:06:07.464Z,98.10
2022-10-22T11:08:59.464Z,98.04
2022-10-22T11:11:41.227Z,97.21
2022-10-22T11:14:35.221Z,97.97
2022-10-22T11:17:15.992Z,97.01
2022-10-22T11:19:52.968Z,96.66
2022-10-22T11:23:16.824Z,96.48
2022-10-22T11:25:44.057Z,97.14
2022-10-22T11:28:31.049Z,96.39
2022-10-22T11:31:03.663Z,95.96
2022-10-22T11:33:39.144Z,96.88
2022-10-22T11:36:08.197Z,97.12
2022-10-22T11:38:36.425Z,96.48
2022-10-22T11:41:12.465Z,96.44
2022-10-22T11:44:05.415Z,96.06
2022-10-22T11:46:55.042Z,96.38
2022-10-22T11:49:28.885Z,96.11
2022-10-22T11:52:37.008Z,97.72
2022-10-22T11:55:34.932Z,99.47
2022-10-22T11:58:02.899Z,99.42
2022-10-22T12:00:35.671Z,97.20
2022-10-22T12:03:23.689Z,96.15
2022-10-22T12:06:24.962Z,94.67
2022-10-22T12:08:54.793Z,94.42
2022-10-22T12:11:49.614Z,94.64
2022-10-22T12:14:28.022Z,94.18
2022-10-22T12:16:59.696Z,94.33
2022-10-22T12:19:32.578Z,94.87
2022-10-22T12:22:11.667Z,94.47
2022-10-22T12:24:45.349Z,94.06
2022-10-22T12:27:22.692Z,93.62
2022-10-22T12:29:55.452Z,93.80
2022-10-22T12:32:22.353Z,93.86
2022-10-22T12:34:52.744Z,93.66
2022-10-22T12:37:20.011Z,92.87
2022-10-22T12:39:46.929Z,91.94
2022-10-22T12:42:18.084Z,92.11
2022-10-22T12:44:45.350Z,92.07
2022-10-22T12:47:17.491Z,91.90
2022-10-22T12:49:49.622Z,92.02
2022-10-22T12:52:20.481Z,91.38
2022-10-22T12:54:52.464Z,91.12
2022-10-22T12:57:21.112Z,91.95
2022-10-22T12:59:51.419Z,91.26
2022-10-22T13:02:27.710Z,92.52
2022-10-22T13:05:19.750Z,93.39
2022-10-22T13:07:52.410Z,92.50
2022-10-22T13:10:33.465Z,91.99
2022-10-22T13:13:03.318Z,91.21
2022-10-22T13:15:36.154Z,90.95
2022-10-22T13:18:17.503Z,90.57
2022-10-22T13:21:02.531Z,91.05
2022-10-22T13:23:32.680Z,90.14
2022-10-22T13:26:17.967Z,89.59
2022-10-22T13:28:54.333Z,90.12
2022-10-22T13:31:27.159Z,89.75
2022-10-22T13:33:57.995Z,89.19
2022-10-22T13:36:24.791Z,88.66
2022-10-22T13:38:51.436Z,88.38
2022-10-22T13:41:19.314Z,88.71
2022-10-22T13:43:46.075Z,88.12
2022-10-22T13:46:12.684Z,87.95
2022-10-22T13:48:39.467Z,87.67
2022-10-22T13:51:15.922Z,87.62
2022-10-22T13:53:44.491Z,88.01
2022-10-22T13:56:15.925Z,88.66
2022-10-22T13:58:44.584Z,88.54
2022-10-22T14:01:29.513Z,88.89
2022-10-22T14:03:59.049Z,89.01
2022-10-22T14:06:28.806Z,88.60
2022-10-22T14:08:58.817Z,88.56
2022-10-22T14:11:27.322Z,88.06
2022-10-22T14:13:54.709Z,87.64
2022-10-22T14:16:24.303Z,87.51
2022-10-22T14:18:51.940Z,87.73
2022-10-22T14:21:19.231Z,87.46
2022-10-22T14:23:50.736Z,87.54
2022-10-22T14:26:24.332Z,87.29
2022-10-22T14:31:43.807Z,87.24
2022-10-22T14:34:13.558Z,87.44
2022-10-22T14:36:40.274Z,87.59
2022-10-22T14:39:06.932Z,87.75
2022-10-22T14:41:33.830Z,87.73
2022-10-22T14:44:00.585Z,87.73
2022-10-22T14:46:27.303Z,87.55
2022-10-22T14:48:53.953Z,87.50
2022-10-22T14:51:21.651Z,87.66
2022-10-22T14:53:48.646Z,87.51
2022-10-22T14:56:21.532Z,87.65
2022-10-22T14:58:48.902Z,87.61
2022-10-22T15:01:15.883Z,87.47
2022-10-22T15:03:42.633Z,87.31
2022-10-22T15:06:09.165Z,87.32
2022-10-22T15:08:36.028Z,87.17
2022-10-22T15:11:02.580Z,87.21
2022-10-22T15:13:30.103Z,87.20
2022-10-22T15:15:57.796Z,87.33
2022-10-22T15:18:25.653Z,87.64
2022-10-22T15:20:59.902Z,87.15
2022-10-22T15:23:27.281Z,87.14
2022-10-22T15:25:54.238Z,87.38
2022-10-22T15:28:21.016Z,87.06
2022-10-22T15:30:58.178Z,87.34
2022-10-22T15:33:26.059Z,86.86
2022-10-22T15:35:52.834Z,86.85
2022-10-22T15:38:20.516Z,87.13
2022-10-22T15:40:47.311Z,87.00
2022-10-22T15:45:40.936Z,86.67
2022-10-22T15:48:07.677Z,86.29
2022-10-22T15:50:37.857Z,86.65
2022-10-22T15:53:05.462Z,86.98
2022-10-22T15:55:32.146Z,87.45
2022-10-22T15:58:01.802Z,87.65
2022-10-22T16:00:30.369Z,87.77
2022-10-22T16:02:56.863Z,87.96
2022-10-22T16:05:23.515Z,87.64
2022-10-22T16:07:51.596Z,87.96
2022-10-22T16:10:18.327Z,88.17
2022-10-22T16:12:45.083Z,87.76
2022-10-22T16:15:11.792Z,88.10
2022-10-22T16:17:45.993Z,88.09
2022-10-22T16:20:15.367Z,87.62
2022-10-22T16:22:42.260Z,87.56
2022-10-22T16:25:09.503Z,87.90
2022-10-22T16:27:36.076Z,87.85
2022-10-22T16:30:02.743Z,87.62
2022-10-22T16:32:29.245Z,87.70
2022-10-22T16:34:55.877Z,87.21
2022-10-22T16:37:22.497Z,86.74
2022-10-22T16:39:49.746Z,86.64
2022-10-22T16:42:16.360Z,86.69
2022-10-22T16:44:42.936Z,86.50
2022-10-22T16:47:09.470Z,86.60
2022-10-22T16:49:36.008Z,86.35
2022-10-22T16:52:02.605Z,85.29
2022-10-22T16:54:29.316Z,85.20
2022-10-22T16:56:55.899Z,84.57
2022-10-22T16:59:22.417Z,84.17
2022-10-22T17:01:49.027Z,83.97
2022-10-22T17:04:17.415Z,83.61
2022-10-22T17:06:44.525Z,83.07
2022-10-22T17:09:12.039Z,82.83
2022-10-22T17:11:40.232Z,83.13
2022-10-22T17:14:09.514Z,82.67
2022-10-22T17:16:36.122Z,82.77
2022-10-22T17:19:03.739Z,83.02
2022-10-22T17:21:30.559Z,82.93
2022-10-22T17:23:57.929Z,82.38
2022-10-22T17:26:27.017Z,81.70
2022-10-22T17:28:54.686Z,81.92
2022-10-22T17:31:22.782Z,81.34
2022-10-22T17:33:51.420Z,80.93
2022-10-22T17:36:19.714Z,81.24
2022-10-22T17:38:50.534Z,81.46
2022-10-22T17:41:20.250Z,81.91
2022-10-22T17:43:47.671Z,82.40
2022-10-22T17:46:20.138Z,82.74
2022-10-22T17:48:55.426Z,82.82
2022-10-22T17:51:23.882Z,82.52
2022-10-22T17:53:50.893Z,82.51
2022-10-22T17:56:21.258Z,82.54
2022-10-22T17:58:48.272Z,82.98
2022-10-22T18:01:21.555Z,83.39
2022-10-22T18:03:48.707Z,83.32
2022-10-22T18:06:15.572Z,83.67
2022-10-22T18:08:42.533Z,83.57
2022-10-22T18:11:16.079Z,83.02
2022-10-22T18:13:43.002Z,82.42
2022-10-22T18:16:09.626Z,82.39
2022-10-22T18:18:36.595Z,83.00
2022-10-22T18:21:03.817Z,83.08
2022-10-22T18:23:30.473Z,83.82
2022-10-22T18:25:57.138Z,83.69
2022-10-22T18:28:23.882Z,83.47
2022-10-22T18:30:50.844Z,84.34
2022-10-22T18:33:19.233Z,84.42
2022-10-22T18:35:46.830Z,84.23
2022-10-22T18:38:13.629Z,83.97
2022-10-22T18:40:46.857Z,83.50
2022-10-22T18:43:13.817Z,83.31
2022-10-22T18:45:48.376Z,83.15
2022-10-22T18:48:18.194Z,82.63
2022-10-22T18:50:45.436Z,82.13
2022-10-22T18:53:14.398Z,82.43
2022-10-22T18:55:41.738Z,82.02
2022-10-22T18:58:08.482Z,82.26
2022-10-22T19:00:36.284Z,81.64
2022-10-22T19:03:03.340Z,81.99
2022-10-22T19:05:29.995Z,82.08
2022-10-22T19:07:56.869Z,82.21
2022-10-22T19:10:23.777Z,82.51
2022-10-22T19:12:50.354Z,82.44
2022-10-22T19:15:17.036Z,82.61
2022-10-22T19:17:43.933Z,82.81
2022-10-22T19:20:10.935Z,82.81
2022-10-22T19:22:37.469Z,83.35
2022-10-22T19:25:06.040Z,83.71
2022-10-22T19:27:36.398Z,83.27
2022-10-22T19:30:04.680Z,83.61
2022-10-22T19:32:31.327Z,83.49
2022-10-22T19:34:59.965Z,83.37
2022-10-22T19:37:26.559Z,83.44
2022-10-22T19:39:53.129Z,83.06
2022-10-22T19:42:20.788Z,83.57
2022-10-22T19:44:47.487Z,84.10
2022-10-22T19:47:15.212Z,83.72
2022-10-22T19:49:42.507Z,83.10
2022-10-22T19:52:09.077Z,82.79
2022-10-22T19:54:40.650Z,83.13
2022-10-22T19:57:08.520Z,82.71
2022-10-22T19:59:35.350Z,82.82
2022-10-22T20:02:02.346Z,82.95
2022-10-22T20:04:29.184Z,83.39
2022-10-22T20:06:55.770Z,83.31
2022-10-22T20:09:25.279Z,83.19
2022-10-22T20:11:53.506Z,83.00
2022-10-22T20:14:20.277Z,83.16
2022-10-22T20:16:46.885Z,83.01
2022-10-22T20:19:16.182Z,83.09
2022-10-22T20:21:44.055Z,83.30
2022-10-22T20:24:11.943Z,83.47
2022-10-22T20:26:38.956Z,83.10
2022-10-22T20:29:05.703Z,83.05
2022-10-22T20:31:33.076Z,82.47
2022-10-22T20:34:03.557Z,82.53
2022-10-22T20:36:31.502Z,83.13
2022-10-22T20:39:07.164Z,82.91
2022-10-22T20:41:35.093Z,83.44
2022-10-22T20:44:01.956Z,83.42
2022-10-22T20:46:32.654Z,83.57
2022-10-22T20:49:03.603Z,83.78
2022-10-22T20:51:30.906Z,83.52
2022-10-22T20:53:57.642Z,83.80
2022-10-22T20:56:24.639Z,83.87
2022-10-22T20:58:56.586Z,84.02
2022-10-22T21:01:24.151Z,83.88
2022-10-22T21:03:52.020Z,83.79
2022-10-22T21:06:23.244Z,83.93
2022-10-22T21:08:50.917Z,84.23
2022-10-22T21:11:18.499Z,83.78
2022-10-22T21:13:45.144Z,84.03
2022-10-22T21:16:13.928Z,84.50
2022-10-22T21:18:40.730Z,84.03
2022-10-22T21:21:08.777Z,84.01
2022-10-22T21:23:36.884Z,83.88
2022-10-22T21:26:04.533Z,84.11
2022-10-22T21:28:35.244Z,83.63
2022-10-22T21:31:08.836Z,83.63
2022-10-22T21:33:37.015Z,83.86
2022-10-22T21:36:04.734Z,83.83
2022-10-22T21:38:32.874Z,84.18
2022-10-22T21:41:03.419Z,85.60
2022-10-22T21:43:29.992Z,87.41
2022-10-22T21:46:08.673Z,87.98
2022-10-22T21:48:36.669Z,88.20
2022-10-22T21:51:11.969Z,88.29
2022-10-22T21:53:39.505Z,88.44
2022-10-22T21:56:07.431Z,88.25
2022-10-22T21:58:37.262Z,87.93
2022-10-22T22:01:04.452Z,87.49
2022-10-22T22:03:31.085Z,86.88
2022-10-22T22:06:03.041Z,87.66
2022-10-22T22:08:29.926Z,88.52
2022-10-22T22:11:05.572Z,88.68
2022-10-22T22:13:33.046Z,89.22
2022-10-22T22:16:05.756Z,89.29
2022-10-22T22:18:33.292Z,89.04
2022-10-22T22:21:03.170Z,89.70
2022-10-22T22:23:29.972Z,90.22
2022-10-22T22:26:00.863Z,90.15
2022-10-22T22:28:29.681Z,89.48
2022-10-22T22:30:56.766Z,89.51
2022-10-22T22:33:23.666Z,89.59
2022-10-22T22:35:50.898Z,89.66
2022-10-22T22:38:17.578Z,89.73
2022-10-22T22:40:44.094Z,89.25
2022-10-22T22:43:11.374Z,89.13
2022-10-22T22:45:40.256Z,89.28
2022-10-22T22:48:07.639Z,89.28
2022-10-22T22:50:35.536Z,89.25
2022-10-22T22:53:03.710Z,89.57
2022-10-22T22:55:31.986Z,89.08
2022-10-22T22:57:58.882Z,89.25
2022-10-22T23:00:25.699Z,88.95
2022-10-22T23:02:56.094Z,90.37
2022-10-22T23:05:22.997Z,91.40
2022-10-22T23:07:49.588Z,91.31
2022-10-22T23:10:16.482Z,90.91
2022-10-22T23:12:43.313Z,90.91
2022-10-22T23:15:10.707Z,90.44
2022-10-22T23:17:37.311Z,89.77
2022-10-22T23:20:04.504Z,89.41
2022-10-22T23:22:33.711Z,89.10
2022-10-22T23:25:00.341Z,89.02
2022-10-22T23:27:26.894Z,89.11
2022-10-22T23:29:53.563Z,88.72
2022-10-22T23:32:20.051Z,88.56
2022-10-22T23:34:46.712Z,88.77
2022-10-22T23:37:13.387Z,88.99
2022-10-22T23:39:40.029Z,88.56
2022-10-22T23:42:06.641Z,88.39
2022-10-22T23:44:33.262Z,87.99
2022-10-22T23:46:59.882Z,87.84
2022-10-22T23:49:26.435Z,87.67
2022-10-22T23:51:52.965Z,88.01
2022-10-22T23:54:19.542Z,88.51
2022-10-22T23:56:46.936Z,88.73
2022-10-22T23:59:15.109Z,88.62
